sensor_id;sensor_type;location;lat;lon;timestamp;P1;durP1;ratioP1;P2;durP2;ratioP2
3299;SDS011;1662;49.310;8.134;2023-01-04T00:00:44;6.87;;;6.03;;
3299;SDS011;1662;49.310;8.134;2023-01-04T00:03:10;7.53;;;6.50;;
3299;SDS011;1662;49.310;8.134;2023-01-04T00:05:36;7.95;;;5.88;;
3299;SDS011;1662;49.310;8.134;2023-01-04T00:08:02;6.45;;;5.85;;
3299;SDS011;1662;49.310;8.134;2023-01-04T00:10:31;10.00;;;7.00;;
3299;SDS011;1662;49.310;8.134;2023-01-04T00:12:57;9.60;;;6.10;;
3299;SDS011;1662;49.310;8.134;2023-01-04T00:17:28;9.68;;;7.25;;
3299;SDS011;1662;49.310;8.134;2023-01-04T00:19:54;13.73;;;6.80;;
3299;SDS011;1662;49.310;8.134;2023-01-04T00:22:20;7.77;;;6.63;;
3299;SDS011;1662;49.310;8.134;2023-01-04T00:24:46;9.43;;;6.87;;
3299;SDS011;1662;49.310;8.134;2023-01-04T00:27:12;7.57;;;5.90;;
3299;SDS011;1662;49.310;8.134;2023-01-04T00:29:38;10.20;;;6.50;;
3299;SDS011;1662;49.310;8.134;2023-01-04T00:34:41;7.78;;;5.82;;
3299;SDS011;1662;49.310;8.134;2023-01-04T00:37:07;6.43;;;5.83;;
3299;SDS011;1662;49.310;8.134;2023-01-04T00:39:33;6.77;;;5.40;;
3299;SDS011;1662;49.310;8.134;2023-01-04T00:41:59;6.53;;;5.90;;
3299;SDS011;1662;49.310;8.134;2023-01-04T00:44:32;6.60;;;5.30;;
3299;SDS011;1662;49.310;8.134;2023-01-04T00:46:58;10.43;;;5.97;;
3299;SDS011;1662;49.310;8.134;2023-01-04T00:49:27;6.53;;;5.22;;
3299;SDS011;1662;49.310;8.134;2023-01-04T00:54:39;8.95;;;5.38;;
3299;SDS011;1662;49.310;8.134;2023-01-04T00:57:05;6.90;;;4.93;;
3299;SDS011;1662;49.310;8.134;2023-01-04T00:59:32;5.18;;;4.68;;
3299;SDS011;1662;49.310;8.134;2023-01-04T01:01:58;6.40;;;3.83;;
3299;SDS011;1662;49.310;8.134;2023-01-04T01:04:24;5.00;;;3.70;;
3299;SDS011;1662;49.310;8.134;2023-01-04T01:06:53;5.65;;;3.28;;
3299;SDS011;1662;49.310;8.134;2023-01-04T01:09:19;4.07;;;2.60;;
3299;SDS011;1662;49.310;8.134;2023-01-04T01:13:51;2.63;;;2.35;;
3299;SDS011;1662;49.310;8.134;2023-01-04T01:16:19;3.00;;;2.55;;
3299;SDS011;1662;49.310;8.134;2023-01-04T01:18:45;4.40;;;2.78;;
3299;SDS011;1662;49.310;8.134;2023-01-04T01:21:12;3.60;;;2.60;;
3299;SDS011;1662;49.310;8.134;2023-01-04T01:23:39;2.38;;;2.28;;
3299;SDS011;1662;49.310;8.134;2023-01-04T01:26:06;2.40;;;2.20;;
3299;SDS011;1662;49.310;8.134;2023-01-04T01:28:33;2.55;;;2.30;;
3299;SDS011;1662;49.310;8.134;2023-01-04T01:33:20;4.32;;;3.10;;
3299;SDS011;1662;49.310;8.134;2023-01-04T01:35:46;3.83;;;2.63;;
3299;SDS011;1662;49.310;8.134;2023-01-04T01:38:12;2.60;;;2.10;;
3299;SDS011;1662;49.310;8.134;2023-01-04T01:40:41;3.57;;;2.57;;
3299;SDS011;1662;49.310;8.134;2023-01-04T01:43:15;4.27;;;2.73;;
3299;SDS011;1662;49.310;8.134;2023-01-04T01:45:41;3.00;;;2.80;;
3299;SDS011;1662;49.310;8.134;2023-01-04T01:48:14;2.73;;;2.63;;
3299;SDS011;1662;49.310;8.134;2023-01-04T01:52:34;2.93;;;2.83;;
3299;SDS011;1662;49.310;8.134;2023-01-04T01:55:02;3.60;;;3.30;;
3299;SDS011;1662;49.310;8.134;2023-01-04T01:57:30;3.10;;;2.90;;
3299;SDS011;1662;49.310;8.134;2023-01-04T01:59:57;3.33;;;3.03;;
3299;SDS011;1662;49.310;8.134;2023-01-04T02:02:25;3.60;;;3.30;;
3299;SDS011;1662;49.310;8.134;2023-01-04T02:04:51;3.53;;;3.27;;
3299;SDS011;1662;49.310;8.134;2023-01-04T02:07:21;2.97;;;2.70;;
3299;SDS011;1662;49.310;8.134;2023-01-04T02:11:31;3.70;;;3.50;;
3299;SDS011;1662;49.310;8.134;2023-01-04T02:13:57;3.50;;;3.10;;
3299;SDS011;1662;49.310;8.134;2023-01-04T02:34:03;5.10;;;4.10;;
3299;SDS011;1662;49.310;8.134;2023-01-04T02:39:17;4.67;;;4.27;;
3299;SDS011;1662;49.310;8.134;2023-01-04T02:44:18;5.43;;;4.93;;
3299;SDS011;1662;49.310;8.134;2023-01-04T02:47:07;4.07;;;3.72;;
3299;SDS011;1662;49.310;8.134;2023-01-04T02:50:55;4.57;;;3.73;;
3299;SDS011;1662;49.310;8.134;2023-01-04T02:53:24;4.20;;;3.83;;
3299;SDS011;1662;49.310;8.134;2023-01-04T02:56:13;9.50;;;4.17;;
3299;SDS011;1662;49.310;8.134;2023-01-04T03:01:30;5.95;;;4.50;;
3299;SDS011;1662;49.310;8.134;2023-01-04T03:13:50;10.20;;;6.25;;
3299;SDS011;1662;49.310;8.134;2023-01-04T03:16:19;11.95;;;6.63;;
3299;SDS011;1662;49.310;8.134;2023-01-04T03:18:47;12.13;;;6.45;;
3299;SDS011;1662;49.310;8.134;2023-01-04T03:21:14;7.90;;;6.68;;
3299;SDS011;1662;49.310;8.134;2023-01-04T03:23:42;10.60;;;8.30;;
3299;SDS011;1662;49.310;8.134;2023-01-04T03:29:18;12.02;;;10.75;;
3299;SDS011;1662;49.310;8.134;2023-01-04T03:32:12;14.80;;;12.15;;
3299;SDS011;1662;49.310;8.134;2023-01-04T03:34:57;12.20;;;11.00;;
3299;SDS011;1662;49.310;8.134;2023-01-04T03:40:49;15.15;;;12.15;;
3299;SDS011;1662;49.310;8.134;2023-01-04T03:43:40;15.40;;;11.35;;
3299;SDS011;1662;49.310;8.134;2023-01-04T03:48:13;15.27;;;11.38;;
3299;SDS011;1662;49.310;8.134;2023-01-04T03:53:23;14.07;;;12.50;;
3299;SDS011;1662;49.310;8.134;2023-01-04T03:55:50;14.55;;;11.95;;
3299;SDS011;1662;49.310;8.134;2023-01-04T03:58:17;14.00;;;12.20;;
3299;SDS011;1662;49.310;8.134;2023-01-04T04:00:44;16.27;;;12.77;;
3299;SDS011;1662;49.310;8.134;2023-01-04T04:05:47;16.52;;;13.70;;
3299;SDS011;1662;49.310;8.134;2023-01-04T04:08:32;15.18;;;12.80;;
3299;SDS011;1662;49.310;8.134;2023-01-04T04:11:00;16.33;;;13.00;;
3299;SDS011;1662;49.310;8.134;2023-01-04T04:13:47;17.02;;;14.18;;
3299;SDS011;1662;49.310;8.134;2023-01-04T04:16:13;20.08;;;14.25;;
3299;SDS011;1662;49.310;8.134;2023-01-04T04:18:39;17.60;;;13.98;;
3299;SDS011;1662;49.310;8.134;2023-01-04T04:21:05;15.50;;;12.67;;
3299;SDS011;1662;49.310;8.134;2023-01-04T04:25:28;17.75;;;13.50;;
3299;SDS011;1662;49.310;8.134;2023-01-04T04:27:55;14.90;;;11.85;;
3299;SDS011;1662;49.310;8.134;2023-01-04T04:30:21;15.07;;;12.55;;
3299;SDS011;1662;49.310;8.134;2023-01-04T04:32:47;17.00;;;13.40;;
3299;SDS011;1662;49.310;8.134;2023-01-04T04:35:13;14.10;;;12.43;;
3299;SDS011;1662;49.310;8.134;2023-01-04T04:37:39;14.77;;;11.17;;
3299;SDS011;1662;49.310;8.134;2023-01-04T04:40:05;15.73;;;10.47;;
3299;SDS011;1662;49.310;8.134;2023-01-04T04:44:41;13.27;;;10.05;;
3299;SDS011;1662;49.310;8.134;2023-01-04T04:47:07;13.73;;;9.13;;
3299;SDS011;1662;49.310;8.134;2023-01-04T04:49:33;16.37;;;9.10;;
3299;SDS011;1662;49.310;8.134;2023-01-04T04:51:59;9.60;;;8.30;;
3299;SDS011;1662;49.310;8.134;2023-01-04T04:54:25;9.60;;;8.20;;
3299;SDS011;1662;49.310;8.134;2023-01-04T04:56:51;10.88;;;8.35;;
3299;SDS011;1662;49.310;8.134;2023-01-04T04:59:17;9.83;;;7.57;;
3299;SDS011;1662;49.310;8.134;2023-01-04T05:02:58;7.68;;;6.72;;
3299;SDS011;1662;49.310;8.134;2023-01-04T05:05:24;10.50;;;7.20;;
3299;SDS011;1662;49.310;8.134;2023-01-04T05:07:50;9.00;;;6.45;;
3299;SDS011;1662;49.310;8.134;2023-01-04T05:10:16;6.43;;;5.63;;
3299;SDS011;1662;49.310;8.134;2023-01-04T05:12:42;7.57;;;6.57;;
3299;SDS011;1662;49.310;8.134;2023-01-04T05:15:24;8.00;;;6.22;;
3299;SDS011;1662;49.310;8.134;2023-01-04T05:17:50;6.85;;;6.15;;
3299;SDS011;1662;49.310;8.134;2023-01-04T05:21:53;8.35;;;6.28;;
3299;SDS011;1662;49.310;8.134;2023-01-04T05:24:19;7.33;;;6.50;;
3299;SDS011;1662;49.310;8.134;2023-01-04T05:26:45;6.75;;;5.70;;
3299;SDS011;1662;49.310;8.134;2023-01-04T05:29:11;6.27;;;5.67;;
3299;SDS011;1662;49.310;8.134;2023-01-04T05:31:57;6.50;;;5.13;;
3299;SDS011;1662;49.310;8.134;2023-01-04T05:34:28;5.22;;;4.72;;
3299;SDS011;1662;49.310;8.134;2023-01-04T05:36:54;6.72;;;4.53;;
3299;SDS011;1662;49.310;8.134;2023-01-04T05:41:21;6.28;;;3.45;;
3299;SDS011;1662;49.310;8.134;2023-01-04T05:44:06;3.67;;;3.38;;
3299;SDS011;1662;49.310;8.134;2023-01-04T05:46:32;7.17;;;2.83;;
3299;SDS011;1662;49.310;8.134;2023-01-04T05:48:58;3.87;;;2.90;;
3299;SDS011;1662;49.310;8.134;2023-01-04T05:51:24;5.57;;;2.93;;
3299;SDS011;1662;49.310;8.134;2023-01-04T05:53:50;5.37;;;2.93;;
3299;SDS011;1662;49.310;8.134;2023-01-04T05:56:18;4.87;;;3.63;;
3299;SDS011;1662;49.310;8.134;2023-01-04T05:58:47;3.50;;;3.20;;
3299;SDS011;1662;49.310;8.134;2023-01-04T06:02:03;3.33;;;3.10;;
3299;SDS011;1662;49.310;8.134;2023-01-04T06:04:29;2.97;;;2.77;;
3299;SDS011;1662;49.310;8.134;2023-01-04T06:06:55;3.60;;;3.10;;
3299;SDS011;1662;49.310;8.134;2023-01-04T06:09:22;2.90;;;2.70;;
3299;SDS011;1662;49.310;8.134;2023-01-04T06:11:49;2.63;;;2.43;;
3299;SDS011;1662;49.310;8.134;2023-01-04T06:14:15;4.80;;;3.10;;
3299;SDS011;1662;49.310;8.134;2023-01-04T06:16:43;2.37;;;2.27;;
3299;SDS011;1662;49.310;8.134;2023-01-04T06:20:49;3.20;;;2.37;;
3299;SDS011;1662;49.310;8.134;2023-01-04T06:23:15;2.47;;;2.27;;
3299;SDS011;1662;49.310;8.134;2023-01-04T06:25:41;3.53;;;3.23;;
3299;SDS011;1662;49.310;8.134;2023-01-04T06:28:07;3.37;;;2.90;;
3299;SDS011;1662;49.310;8.134;2023-01-04T06:30:33;4.13;;;2.87;;
3299;SDS011;1662;49.310;8.134;2023-01-04T06:32:59;2.70;;;2.50;;
3299;SDS011;1662;49.310;8.134;2023-01-04T06:35:25;4.23;;;2.70;;
3299;SDS011;1662;49.310;8.134;2023-01-04T06:39:10;2.77;;;2.40;;
3299;SDS011;1662;49.310;8.134;2023-01-04T06:41:36;3.97;;;2.27;;
3299;SDS011;1662;49.310;8.134;2023-01-04T06:44:02;3.27;;;2.70;;
3299;SDS011;1662;49.310;8.134;2023-01-04T06:46:30;2.80;;;2.60;;
3299;SDS011;1662;49.310;8.134;2023-01-04T06:48:56;2.70;;;2.50;;
3299;SDS011;1662;49.310;8.134;2023-01-04T06:51:25;2.60;;;2.40;;
3299;SDS011;1662;49.310;8.134;2023-01-04T06:56:36;2.60;;;2.17;;
3299;SDS011;1662;49.310;8.134;2023-01-04T06:59:02;1.70;;;1.60;;
3299;SDS011;1662;49.310;8.134;2023-01-04T07:01:28;1.90;;;1.80;;
3299;SDS011;1662;49.310;8.134;2023-01-04T07:03:54;2.33;;;2.23;;
3299;SDS011;1662;49.310;8.134;2023-01-04T07:06:22;1.93;;;1.83;;
3299;SDS011;1662;49.310;8.134;2023-01-04T07:08:48;2.33;;;1.70;;
3299;SDS011;1662;49.310;8.134;2023-01-04T07:14:01;1.80;;;1.70;;
3299;SDS011;1662;49.310;8.134;2023-01-04T07:16:27;3.77;;;2.10;;
3299;SDS011;1662;49.310;8.134;2023-01-04T07:18:53;2.30;;;2.00;;
3299;SDS011;1662;49.310;8.134;2023-01-04T07:21:19;2.30;;;2.20;;
3299;SDS011;1662;49.310;8.134;2023-01-04T07:23:45;2.07;;;1.97;;
3299;SDS011;1662;49.310;8.134;2023-01-04T07:26:11;2.10;;;1.97;;
3299;SDS011;1662;49.310;8.134;2023-01-04T07:28:37;1.80;;;1.70;;
3299;SDS011;1662;49.310;8.134;2023-01-04T07:32:43;2.10;;;1.90;;
3299;SDS011;1662;49.310;8.134;2023-01-04T07:35:12;2.50;;;2.10;;
3299;SDS011;1662;49.310;8.134;2023-01-04T07:37:38;2.43;;;2.33;;
3299;SDS011;1662;49.310;8.134;2023-01-04T07:40:04;2.53;;;2.33;;
3299;SDS011;1662;49.310;8.134;2023-01-04T07:42:30;2.20;;;2.10;;
3299;SDS011;1662;49.310;8.134;2023-01-04T07:44:56;2.90;;;2.53;;
3299;SDS011;1662;49.310;8.134;2023-01-04T07:47:22;4.40;;;2.20;;
3299;SDS011;1662;49.310;8.134;2023-01-04T07:51:56;2.40;;;2.30;;
3299;SDS011;1662;49.310;8.134;2023-01-04T07:54:22;3.00;;;2.80;;
3299;SDS011;1662;49.310;8.134;2023-01-04T07:56:48;3.27;;;2.87;;
3299;SDS011;1662;49.310;8.134;2023-01-04T07:59:15;6.60;;;3.17;;
3299;SDS011;1662;49.310;8.134;2023-01-04T08:01:42;2.80;;;2.70;;
3299;SDS011;1662;49.310;8.134;2023-01-04T08:04:08;3.20;;;3.00;;
3299;SDS011;1662;49.310;8.134;2023-01-04T08:06:35;3.67;;;3.37;;
3299;SDS011;1662;49.310;8.134;2023-01-04T08:10:22;2.47;;;2.37;;
3299;SDS011;1662;49.310;8.134;2023-01-04T08:12:47;4.20;;;3.00;;
3299;SDS011;1662;49.310;8.134;2023-01-04T08:15:15;3.47;;;3.17;;
3299;SDS011;1662;49.310;8.134;2023-01-04T08:17:41;3.30;;;2.97;;
3299;SDS011;1662;49.310;8.134;2023-01-04T08:20:07;3.77;;;3.47;;
3299;SDS011;1662;49.310;8.134;2023-01-04T08:22:35;2.87;;;2.67;;
3299;SDS011;1662;49.310;8.134;2023-01-04T08:27:43;3.00;;;2.70;;
3299;SDS011;1662;49.310;8.134;2023-01-04T08:30:09;3.23;;;2.90;;
3299;SDS011;1662;49.310;8.134;2023-01-04T08:32:34;3.93;;;3.27;;
3299;SDS011;1662;49.310;8.134;2023-01-04T08:35:03;2.70;;;2.60;;
3299;SDS011;1662;49.310;8.134;2023-01-04T08:37:29;3.50;;;2.60;;
3299;SDS011;1662;49.310;8.134;2023-01-04T08:39:55;2.77;;;2.57;;
3299;SDS011;1662;49.310;8.134;2023-01-04T08:42:21;2.90;;;2.80;;
3299;SDS011;1662;49.310;8.134;2023-01-04T08:46:25;3.30;;;3.10;;
3299;SDS011;1662;49.310;8.134;2023-01-04T08:48:50;2.70;;;2.50;;
3299;SDS011;1662;49.310;8.134;2023-01-04T08:51:16;4.00;;;3.70;;
3299;SDS011;1662;49.310;8.134;2023-01-04T08:53:42;3.23;;;3.03;;
3299;SDS011;1662;49.310;8.134;2023-01-04T08:56:08;2.80;;;2.70;;
3299;SDS011;1662;49.310;8.134;2023-01-04T08:58:34;2.80;;;2.60;;
3299;SDS011;1662;49.310;8.134;2023-01-04T09:01:05;3.50;;;3.20;;
3299;SDS011;1662;49.310;8.134;2023-01-04T09:04:38;3.50;;;3.20;;
3299;SDS011;1662;49.310;8.134;2023-01-04T09:07:04;4.07;;;3.87;;
3299;SDS011;1662;49.310;8.134;2023-01-04T09:09:30;7.83;;;2.97;;
3299;SDS011;1662;49.310;8.134;2023-01-04T09:11:55;2.90;;;2.70;;
3299;SDS011;1662;49.310;8.134;2023-01-04T09:14:21;4.40;;;3.70;;
3299;SDS011;1662;49.310;8.134;2023-01-04T09:16:47;3.00;;;2.90;;
3299;SDS011;1662;49.310;8.134;2023-01-04T09:19:12;2.70;;;2.53;;
3299;SDS011;1662;49.310;8.134;2023-01-04T09:21:40;3.10;;;2.80;;
3299;SDS011;1662;49.310;8.134;2023-01-04T09:25:22;5.30;;;3.57;;
3299;SDS011;1662;49.310;8.134;2023-01-04T09:27:48;2.90;;;2.80;;
3299;SDS011;1662;49.310;8.134;2023-01-04T09:30:14;3.30;;;3.10;;
3299;SDS011;1662;49.310;8.134;2023-01-04T09:32:42;2.70;;;2.50;;
3299;SDS011;1662;49.310;8.134;2023-01-04T09:35:07;3.57;;;3.37;;
3299;SDS011;1662;49.310;8.134;2023-01-04T09:37:36;3.40;;;3.20;;
3299;SDS011;1662;49.310;8.134;2023-01-04T09:40:02;4.00;;;3.20;;
3299;SDS011;1662;49.310;8.134;2023-01-04T09:44:00;2.60;;;2.50;;
3299;SDS011;1662;49.310;8.134;2023-01-04T09:46:34;5.60;;;2.70;;
3299;SDS011;1662;49.310;8.134;2023-01-04T09:51:55;3.00;;;2.80;;
3299;SDS011;1662;49.310;8.134;2023-01-04T09:54:24;3.60;;;3.40;;
3299;SDS011;1662;49.310;8.134;2023-01-04T09:56:56;3.90;;;3.27;;
3299;SDS011;1662;49.310;8.134;2023-01-04T10:02:10;4.33;;;3.93;;
3299;SDS011;1662;49.310;8.134;2023-01-04T10:04:42;3.53;;;3.23;;
3299;SDS011;1662;49.310;8.134;2023-01-04T10:07:31;3.13;;;2.87;;
3299;SDS011;1662;49.310;8.134;2023-01-04T10:09:57;2.50;;;2.30;;
3299;SDS011;1662;49.310;8.134;2023-01-04T10:28:00;2.30;;;2.20;;
3299;SDS011;1662;49.310;8.134;2023-01-04T10:33:16;5.80;;;1.63;;
3299;SDS011;1662;49.310;8.134;2023-01-04T10:35:50;1.70;;;1.60;;
3299;SDS011;1662;49.310;8.134;2023-01-04T10:40:24;2.27;;;2.10;;
3299;SDS011;1662;49.310;8.134;2023-01-04T10:43:04;2.13;;;2.03;;
3299;SDS011;1662;49.310;8.134;2023-01-04T10:45:45;1.87;;;1.87;;
3299;SDS011;1662;49.310;8.134;2023-01-04T10:51:16;2.40;;;2.20;;
3299;SDS011;1662;49.310;8.134;2023-01-04T10:53:58;1.83;;;1.73;;
3299;SDS011;1662;49.310;8.134;2023-01-04T10:58:31;2.07;;;1.97;;
3299;SDS011;1662;49.310;8.134;2023-01-04T11:01:06;1.30;;;1.30;;
3299;SDS011;1662;49.310;8.134;2023-01-04T11:03:46;2.50;;;1.93;;
3299;SDS011;1662;49.310;8.134;2023-01-04T11:06:19;2.77;;;1.73;;
3299;SDS011;1662;49.310;8.134;2023-01-04T11:15:48;1.70;;;1.60;;
3299;SDS011;1662;49.310;8.134;2023-01-04T11:18:15;2.00;;;1.90;;
3299;SDS011;1662;49.310;8.134;2023-01-04T11:20:41;2.33;;;2.13;;
3299;SDS011;1662;49.310;8.134;2023-01-04T11:25:48;2.37;;;2.27;;
3299;SDS011;1662;49.310;8.134;2023-01-04T11:33:53;2.07;;;1.97;;
3299;SDS011;1662;49.310;8.134;2023-01-04T11:38:55;2.30;;;2.07;;
3299;SDS011;1662;49.310;8.134;2023-01-04T11:41:21;2.10;;;2.00;;
3299;SDS011;1662;49.310;8.134;2023-01-04T11:43:57;1.63;;;1.53;;
3299;SDS011;1662;49.310;8.134;2023-01-04T11:46:25;2.30;;;1.80;;
3299;SDS011;1662;49.310;8.134;2023-01-04T11:51:59;1.90;;;1.80;;
3299;SDS011;1662;49.310;8.134;2023-01-04T11:54:27;2.23;;;2.10;;
3299;SDS011;1662;49.310;8.134;2023-01-04T11:59:26;2.60;;;2.50;;
3299;SDS011;1662;49.310;8.134;2023-01-04T12:02:09;1.80;;;1.70;;
3299;SDS011;1662;49.310;8.134;2023-01-04T12:04:46;4.10;;;3.77;;
3299;SDS011;1662;49.310;8.134;2023-01-04T12:09:55;2.40;;;2.23;;
3299;SDS011;1662;49.310;8.134;2023-01-04T12:12:24;3.20;;;2.90;;
3299;SDS011;1662;49.310;8.134;2023-01-04T12:14:53;2.60;;;2.50;;
3299;SDS011;1662;49.310;8.134;2023-01-04T12:17:34;2.53;;;2.40;;
3299;SDS011;1662;49.310;8.134;2023-01-04T12:20:23;2.97;;;2.60;;
3299;SDS011;1662;49.310;8.134;2023-01-04T12:22:52;2.47;;;2.37;;
3299;SDS011;1662;49.310;8.134;2023-01-04T12:27:10;2.30;;;2.20;;
3299;SDS011;1662;49.310;8.134;2023-01-04T12:29:42;2.57;;;2.47;;
3299;SDS011;1662;49.310;8.134;2023-01-04T12:37:04;2.03;;;1.83;;
3299;SDS011;1662;49.310;8.134;2023-01-04T12:39:41;3.13;;;2.90;;
3299;SDS011;1662;49.310;8.134;2023-01-04T12:47:04;4.00;;;2.13;;
3299;SDS011;1662;49.310;8.134;2023-01-04T12:52:50;3.30;;;2.30;;
3299;SDS011;1662;49.310;8.134;2023-01-04T12:57:56;2.50;;;2.40;;
3299;SDS011;1662;49.310;8.134;2023-01-04T13:03:47;2.27;;;2.07;;
3299;SDS011;1662;49.310;8.134;2023-01-04T13:05:55;2.10;;;2.00;;
3299;SDS011;1662;49.310;8.134;2023-01-04T13:08:26;2.27;;;2.17;;
3299;SDS011;1662;49.310;8.134;2023-01-04T13:10:55;2.10;;;2.00;;
3299;SDS011;1662;49.310;8.134;2023-01-04T13:21:06;2.73;;;2.60;;
3299;SDS011;1662;49.310;8.134;2023-01-04T13:23:37;2.20;;;2.10;;
3299;SDS011;1662;49.310;8.134;2023-01-04T13:32:01;3.67;;;2.60;;
3299;SDS011;1662;49.310;8.134;2023-01-04T13:42:45;2.40;;;2.30;;
3299;SDS011;1662;49.310;8.134;2023-01-04T13:45:27;2.43;;;2.07;;
3299;SDS011;1662;49.310;8.134;2023-01-04T13:47:55;2.30;;;2.10;;
3299;SDS011;1662;49.310;8.134;2023-01-04T13:50:27;2.47;;;2.33;;
3299;SDS011;1662;49.310;8.134;2023-01-04T13:52:56;2.30;;;2.20;;
3299;SDS011;1662;49.310;8.134;2023-01-04T13:55:23;3.67;;;2.37;;
3299;SDS011;1662;49.310;8.134;2023-01-04T14:00:50;2.37;;;2.23;;
3299;SDS011;1662;49.310;8.134;2023-01-04T14:03:24;2.77;;;2.67;;
3299;SDS011;1662;49.310;8.134;2023-01-04T14:05:53;2.80;;;2.50;;
3299;SDS011;1662;49.310;8.134;2023-01-04T14:08:29;2.63;;;2.43;;
3299;SDS011;1662;49.310;8.134;2023-01-04T14:10:58;3.40;;;3.10;;
3299;SDS011;1662;49.310;8.134;2023-01-04T14:13:24;3.13;;;2.87;;
3299;SDS011;1662;49.310;8.134;2023-01-04T14:18:51;1.80;;;1.70;;
3299;SDS011;1662;49.310;8.134;2023-01-04T14:21:17;2.07;;;1.97;;
3299;SDS011;1662;49.310;8.134;2023-01-04T14:23:45;2.00;;;1.90;;
3299;SDS011;1662;49.310;8.134;2023-01-04T14:26:30;2.03;;;1.93;;
3299;SDS011;1662;49.310;8.134;2023-01-04T14:28:56;2.00;;;1.90;;
3299;SDS011;1662;49.310;8.134;2023-01-04T14:31:24;2.60;;;2.40;;
3299;SDS011;1662;49.310;8.134;2023-01-04T14:33:54;1.53;;;1.53;;
3299;SDS011;1662;49.310;8.134;2023-01-04T14:37:03;1.77;;;1.60;;
3299;SDS011;1662;49.310;8.134;2023-01-04T14:39:29;1.67;;;1.67;;
3299;SDS011;1662;49.310;8.134;2023-01-04T14:41:58;1.87;;;1.77;;
3299;SDS011;1662;49.310;8.134;2023-01-04T14:44:26;1.57;;;1.47;;
3299;SDS011;1662;49.310;8.134;2023-01-04T14:46:55;1.70;;;1.67;;
3299;SDS011;1662;49.310;8.134;2023-01-04T14:49:22;3.53;;;2.40;;
3299;SDS011;1662;49.310;8.134;2023-01-04T14:54:32;1.97;;;1.87;;
3299;SDS011;1662;49.310;8.134;2023-01-04T14:56:59;1.80;;;1.70;;
3299;SDS011;1662;49.310;8.134;2023-01-04T14:59:24;2.03;;;1.90;;
3299;SDS011;1662;49.310;8.134;2023-01-04T15:01:51;1.90;;;1.80;;
3299;SDS011;1662;49.310;8.134;2023-01-04T15:04:18;1.80;;;1.70;;
3299;SDS011;1662;49.310;8.134;2023-01-04T15:06:51;2.13;;;2.03;;
3299;SDS011;1662;49.310;8.134;2023-01-04T15:09:19;1.80;;;1.70;;
3299;SDS011;1662;49.310;8.134;2023-01-04T15:13:28;1.30;;;1.30;;
3299;SDS011;1662;49.310;8.134;2023-01-04T15:15:55;1.83;;;1.73;;
3299;SDS011;1662;49.310;8.134;2023-01-04T15:18:21;2.00;;;1.90;;
3299;SDS011;1662;49.310;8.134;2023-01-04T15:20:47;1.70;;;1.60;;
3299;SDS011;1662;49.310;8.134;2023-01-04T15:23:16;1.70;;;1.60;;
3299;SDS011;1662;49.310;8.134;2023-01-04T15:25:44;2.23;;;2.10;;
3299;SDS011;1662;49.310;8.134;2023-01-04T15:30:42;3.77;;;3.50;;
3299;SDS011;1662;49.310;8.134;2023-01-04T15:33:08;3.30;;;3.10;;
3299;SDS011;1662;49.310;8.134;2023-01-04T15:35:34;1.90;;;1.80;;
3299;SDS011;1662;49.310;8.134;2023-01-04T15:37:59;2.27;;;1.90;;
3299;SDS011;1662;49.310;8.134;2023-01-04T15:40:25;2.63;;;2.53;;
3299;SDS011;1662;49.310;8.134;2023-01-04T15:42:50;2.07;;;1.97;;
3299;SDS011;1662;49.310;8.134;2023-01-04T15:45:26;2.30;;;2.20;;
3299;SDS011;1662;49.310;8.134;2023-01-04T15:48:38;1.37;;;1.37;;
3299;SDS011;1662;49.310;8.134;2023-01-04T15:51:04;1.90;;;1.80;;
3299;SDS011;1662;49.310;8.134;2023-01-04T15:53:32;2.30;;;2.10;;
3299;SDS011;1662;49.310;8.134;2023-01-04T15:56:08;1.80;;;1.43;;
3299;SDS011;1662;49.310;8.134;2023-01-04T15:58:36;2.20;;;2.10;;
3299;SDS011;1662;49.310;8.134;2023-01-04T16:01:06;2.10;;;2.00;;
3299;SDS011;1662;49.310;8.134;2023-01-04T16:03:33;2.30;;;2.20;;
3299;SDS011;1662;49.310;8.134;2023-01-04T16:07:24;3.10;;;2.90;;
3299;SDS011;1662;49.310;8.134;2023-01-04T16:09:49;2.10;;;2.00;;
3299;SDS011;1662;49.310;8.134;2023-01-04T16:12:15;2.47;;;2.27;;
3299;SDS011;1662;49.310;8.134;2023-01-04T16:15:00;3.27;;;3.07;;
3299;SDS011;1662;49.310;8.134;2023-01-04T16:17:25;1.87;;;1.77;;
3299;SDS011;1662;49.310;8.134;2023-01-04T16:19:51;2.80;;;2.63;;
3299;SDS011;1662;49.310;8.134;2023-01-04T16:22:16;4.40;;;4.10;;
3299;SDS011;1662;49.310;8.134;2023-01-04T16:25:34;3.67;;;3.37;;
3299;SDS011;1662;49.310;8.134;2023-01-04T16:28:02;2.63;;;2.47;;
3299;SDS011;1662;49.310;8.134;2023-01-04T16:30:31;7.60;;;6.00;;
3299;SDS011;1662;49.310;8.134;2023-01-04T16:32:57;4.03;;;3.73;;
3299;SDS011;1662;49.310;8.134;2023-01-04T16:35:26;3.00;;;2.80;;
3299;SDS011;1662;49.310;8.134;2023-01-04T16:37:51;2.77;;;2.67;;
3299;SDS011;1662;49.310;8.134;2023-01-04T16:40:19;4.60;;;4.30;;
3299;SDS011;1662;49.310;8.134;2023-01-04T16:44:32;3.67;;;3.47;;
3299;SDS011;1662;49.310;8.134;2023-01-04T16:46:58;2.33;;;2.23;;
3299;SDS011;1662;49.310;8.134;2023-01-04T16:49:26;2.80;;;2.70;;
3299;SDS011;1662;49.310;8.134;2023-01-04T16:51:54;2.03;;;1.93;;
3299;SDS011;1662;49.310;8.134;2023-01-04T16:54:20;2.00;;;1.90;;
3299;SDS011;1662;49.310;8.134;2023-01-04T16:56:45;2.10;;;2.00;;
3299;SDS011;1662;49.310;8.134;2023-01-04T16:59:13;1.80;;;1.80;;
3299;SDS011;1662;49.310;8.134;2023-01-04T17:03:46;1.80;;;1.70;;
3299;SDS011;1662;49.310;8.134;2023-01-04T17:06:16;2.20;;;2.10;;
3299;SDS011;1662;49.310;8.134;2023-01-04T17:08:43;3.63;;;2.00;;
3299;SDS011;1662;49.310;8.134;2023-01-04T17:11:13;2.80;;;2.30;;
3299;SDS011;1662;49.310;8.134;2023-01-04T17:13:42;2.80;;;2.60;;
3299;SDS011;1662;49.310;8.134;2023-01-04T17:16:09;3.40;;;3.10;;
3299;SDS011;1662;49.310;8.134;2023-01-04T17:21:28;2.80;;;2.60;;
3299;SDS011;1662;49.310;8.134;2023-01-04T17:23:55;3.37;;;3.07;;
3299;SDS011;1662;49.310;8.134;2023-01-04T17:26:25;6.03;;;4.60;;
3299;SDS011;1662;49.310;8.134;2023-01-04T17:28:53;4.17;;;3.47;;
3299;SDS011;1662;49.310;8.134;2023-01-04T17:31:24;4.27;;;2.70;;
3299;SDS011;1662;49.310;8.134;2023-01-04T17:33:52;3.10;;;2.90;;
3299;SDS011;1662;49.310;8.134;2023-01-04T17:36:18;5.20;;;3.70;;
3299;SDS011;1662;49.310;8.134;2023-01-04T17:39:56;1.50;;;1.40;;
3299;SDS011;1662;49.310;8.134;2023-01-04T17:42:26;1.93;;;1.83;;
3299;SDS011;1662;49.310;8.134;2023-01-04T17:44:52;4.03;;;3.20;;
3299;SDS011;1662;49.310;8.134;2023-01-04T17:47:17;2.10;;;2.00;;
3299;SDS011;1662;49.310;8.134;2023-01-04T17:49:43;1.30;;;1.30;;
3299;SDS011;1662;49.310;8.134;2023-01-04T17:52:11;1.80;;;1.70;;
3299;SDS011;1662;49.310;8.134;2023-01-04T17:54:37;3.03;;;2.83;;
3299;SDS011;1662;49.310;8.134;2023-01-04T17:58:24;4.00;;;3.53;;
3299;SDS011;1662;49.310;8.134;2023-01-04T18:00:52;2.00;;;1.90;;
3299;SDS011;1662;49.310;8.134;2023-01-04T18:03:19;2.73;;;2.63;;
3299;SDS011;1662;49.310;8.134;2023-01-04T18:05:48;3.27;;;3.07;;
3299;SDS011;1662;49.310;8.134;2023-01-04T18:08:15;2.03;;;1.93;;
3299;SDS011;1662;49.310;8.134;2023-01-04T18:10:41;2.33;;;2.23;;
3299;SDS011;1662;49.310;8.134;2023-01-04T18:13:06;3.50;;;2.80;;
3299;SDS011;1662;49.310;8.134;2023-01-04T18:16:52;2.40;;;2.30;;
3299;SDS011;1662;49.310;8.134;2023-01-04T18:19:21;1.43;;;1.43;;
3299;SDS011;1662;49.310;8.134;2023-01-04T18:21:47;1.40;;;1.30;;
3299;SDS011;1662;49.310;8.134;2023-01-04T18:24:13;2.07;;;1.97;;
3299;SDS011;1662;49.310;8.134;2023-01-04T18:26:38;4.30;;;3.00;;
3299;SDS011;1662;49.310;8.134;2023-01-04T18:29:04;2.40;;;2.30;;
3299;SDS011;1662;49.310;8.134;2023-01-04T18:31:30;3.90;;;3.50;;
3299;SDS011;1662;49.310;8.134;2023-01-04T18:34:50;3.57;;;2.83;;
3299;SDS011;1662;49.310;8.134;2023-01-04T18:37:16;2.40;;;2.30;;
3299;SDS011;1662;49.310;8.134;2023-01-04T18:39:42;2.57;;;2.37;;
3299;SDS011;1662;49.310;8.134;2023-01-04T18:42:08;3.10;;;2.80;;
3299;SDS011;1662;49.310;8.134;2023-01-04T18:44:33;1.20;;;1.20;;
3299;SDS011;1662;49.310;8.134;2023-01-04T18:47:02;2.10;;;2.00;;
3299;SDS011;1662;49.310;8.134;2023-01-04T18:49:27;3.10;;;2.80;;
3299;SDS011;1662;49.310;8.134;2023-01-04T18:52:48;4.63;;;3.70;;
3299;SDS011;1662;49.310;8.134;2023-01-04T18:55:13;5.07;;;4.40;;
3299;SDS011;1662;49.310;8.134;2023-01-04T18:57:39;3.80;;;3.50;;
3299;SDS011;1662;49.310;8.134;2023-01-04T19:00:06;2.20;;;2.10;;
3299;SDS011;1662;49.310;8.134;2023-01-04T19:02:33;1.60;;;1.60;;
3299;SDS011;1662;49.310;8.134;2023-01-04T19:04:59;2.70;;;2.50;;